createdAt,value
2018-09-20T00:00:10.219Z,0
2018-09-20T00:01:10.289Z,0
2018-09-20T00:02:10.338Z,0
2018-09-20T00:03:10.255Z,0
2018-09-20T00:04:10.219Z,0
2018-09-20T00:05:10.323Z,0
2018-09-20T00:06:10.297Z,0
2018-09-20T00:07:10.356Z,0
2018-09-20T00:08:10.344Z,0
2018-09-20T00:09:10.270Z,0
2018-09-20T00:10:10.296Z,0
2018-09-20T00:11:10.243Z,0
2018-09-20T00:12:10.290Z,0
2018-09-20T00:13:10.352Z,0
2018-09-20T00:14:10.245Z,0
2018-09-20T00:15:10.362Z,0
2018-09-20T00:16:10.307Z,0
2018-09-20T00:17:10.363Z,0
2018-09-20T00:18:10.357Z,0
2018-09-20T00:19:10.364Z,0
2018-09-20T00:20:10.265Z,0
2018-09-20T00:21:10.333Z,0
2018-09-20T00:22:10.333Z,0
2018-09-20T00:23:10.311Z,0
2018-09-20T00:24:10.266Z,0
2018-09-20T00:25:10.324Z,0
2018-09-20T00:26:10.263Z,0
2018-09-20T00:27:10.336Z,0
2018-09-20T00:28:10.270Z,0
2018-09-20T00:29:10.267Z,0
2018-09-20T00:30:10.339Z,0
2018-09-20T00:31:10.271Z,0
2018-09-20T00:32:10.271Z,0
2018-09-20T00:33:10.274Z,0
2018-09-20T00:34:10.273Z,0
2018-09-20T00:35:10.271Z,0
2018-09-20T00:36:10.360Z,0
2018-09-20T00:37:10.345Z,0
2018-09-20T00:38:10.278Z,0
2018-09-20T00:39:10.345Z,0
2018-09-20T00:40:10.345Z,0
2018-09-20T00:41:10.347Z,0
2018-09-20T00:42:10.280Z,0
2018-09-20T00:43:10.340Z,0
2018-09-20T00:44:10.285Z,0
2018-09-20T00:45:10.342Z,0
2018-09-20T00:46:10.384Z,0
2018-09-20T00:47:10.301Z,0
2018-09-20T00:48:10.372Z,0
2018-09-20T00:49:10.348Z,0
2018-09-20T00:50:10.324Z,0
2018-09-20T00:51:10.307Z,0
2018-09-20T00:52:10.407Z,0
2018-09-20T00:53:10.373Z,0
2018-09-20T00:54:10.389Z,0
2018-09-20T00:55:10.291Z,0
2018-09-20T00:56:10.277Z,0
2018-09-20T00:57:10.310Z,0
2018-09-20T00:58:10.407Z,0
2018-09-20T00:59:10.294Z,0
2018-09-20T01:00:10.353Z,0
2018-09-20T01:01:10.277Z,0
2018-09-20T01:02:10.313Z,0
2018-09-20T01:03:10.278Z,0
2018-09-20T01:04:10.276Z,0
2018-09-20T01:05:10.323Z,0
2018-09-20T01:06:10.264Z,0
2018-09-20T01:07:10.282Z,0
2018-09-20T01:08:10.359Z,0
2018-09-20T01:09:10.394Z,0
2018-09-20T01:10:10.384Z,0
2018-09-20T01:11:10.327Z,0
2018-09-20T01:12:10.368Z,0
2018-09-20T01:13:10.373Z,0
2018-09-20T01:14:10.363Z,0
2018-09-20T01:15:10.389Z,0
2018-09-20T01:16:10.324Z,0
2018-09-20T01:17:10.346Z,0
2018-09-20T01:18:10.394Z,0
2018-09-20T01:19:10.387Z,0
2018-09-20T01:20:10.395Z,0
2018-09-20T01:21:10.360Z,0
2018-09-20T01:22:10.364Z,0
2018-09-20T01:23:10.364Z,0
2018-09-20T01:24:10.290Z,0
2018-09-20T01:25:10.368Z,0
2018-09-20T01:26:10.367Z,0
2018-09-20T01:27:10.368Z,0
2018-09-20T01:28:10.293Z,0
2018-09-20T01:29:10.318Z,0
2018-09-20T01:30:10.293Z,0
2018-09-20T01:31:10.380Z,0
2018-09-20T01:32:10.318Z,0
2018-09-20T01:33:10.315Z,0
2018-09-20T01:34:10.341Z,0
2018-09-20T01:35:10.317Z,0
2018-09-20T01:36:10.319Z,0
2018-09-20T01:37:10.388Z,0
2018-09-20T01:38:10.387Z,0
2018-09-20T01:39:10.385Z,0
2018-09-20T01:40:10.388Z,0
2018-09-20T01:41:10.412Z,0
2018-09-20T01:42:10.391Z,0
2018-09-20T01:43:10.361Z,0
2018-09-20T01:44:10.351Z,0
2018-09-20T01:45:10.326Z,0
2018-09-20T01:46:10.316Z,0
2018-09-20T01:47:10.330Z,0
2018-09-20T01:48:10.330Z,0
2018-09-20T01:49:10.352Z,0
2018-09-20T01:50:10.351Z,0
2018-09-20T01:51:10.333Z,0
2018-09-20T01:52:10.389Z,0
2018-09-20T01:53:10.391Z,0
2018-09-20T01:54:10.423Z,0
2018-09-20T01:55:10.373Z,0
2018-09-20T01:56:10.413Z,0
2018-09-20T01:57:10.365Z,0
2018-09-20T01:58:10.338Z,0
2018-09-20T01:59:10.317Z,0
2018-09-20T02:00:10.314Z,0
2018-09-20T02:01:10.314Z,0
2018-09-20T02:02:10.400Z,0
2018-09-20T02:03:10.393Z,0
2018-09-20T02:04:10.392Z,0
2018-09-20T02:05:10.393Z,0
2018-09-20T02:06:10.393Z,0
2018-09-20T02:07:10.393Z,0
2018-09-20T02:08:10.325Z,0
2018-09-20T02:09:10.320Z,0
2018-09-20T02:10:10.401Z,0
2018-09-20T02:11:10.378Z,0
2018-09-20T02:12:10.385Z,0
2018-09-20T02:13:10.332Z,0
2018-09-20T02:14:10.372Z,0
2018-09-20T02:15:10.412Z,0
2018-09-20T02:16:10.351Z,0
2018-09-20T02:17:10.406Z,0
2018-09-20T02:18:10.394Z,0
2018-09-20T02:19:10.368Z,0
2018-09-20T02:20:10.353Z,0
2018-09-20T02:21:10.409Z,0
2018-09-20T02:22:10.439Z,0
2018-09-20T02:23:10.421Z,0
2018-09-20T02:24:10.321Z,0
2018-09-20T02:25:10.419Z,0
2018-09-20T02:26:10.334Z,0
2018-09-20T02:27:10.421Z,0
2018-09-20T02:28:10.398Z,0
2018-09-20T02:29:10.450Z,0
2018-09-20T02:30:10.400Z,0
2018-09-20T02:31:10.426Z,0
2018-09-20T02:32:10.426Z,0
2018-09-20T02:33:10.356Z,0
2018-09-20T02:34:10.416Z,0
2018-09-20T02:35:10.359Z,0
2018-09-20T02:36:10.357Z,0
2018-09-20T02:37:10.358Z,0
2018-09-20T02:38:10.406Z,0
2018-09-20T02:39:10.361Z,0
2018-09-20T02:40:10.362Z,0
2018-09-20T02:41:10.360Z,0
2018-09-20T02:42:10.431Z,0
2018-09-20T02:43:10.362Z,0
2018-09-20T02:44:10.429Z,0
2018-09-20T02:45:10.375Z,0
2018-09-20T02:46:10.366Z,0
2018-09-20T02:47:10.364Z,0
2018-09-20T02:48:10.373Z,0
2018-09-20T02:49:10.436Z,0
2018-09-20T02:50:10.439Z,0
2018-09-20T02:51:10.360Z,0
2018-09-20T02:52:10.513Z,0
2018-09-20T02:53:10.475Z,0
2018-09-20T02:54:10.475Z,0
2018-09-20T02:55:10.395Z,0
2018-09-20T02:56:10.356Z,0
2018-09-20T02:57:10.472Z,0
2018-09-20T02:58:10.410Z,0
2018-09-20T02:59:10.359Z,0
2018-09-20T03:00:10.471Z,0
2018-09-20T03:01:10.344Z,0
2018-09-20T03:02:10.434Z,0
2018-09-20T03:03:10.361Z,0
2018-09-20T03:04:10.316Z,0
2018-09-20T03:05:10.434Z,0
2018-09-20T03:06:10.367Z,0
2018-09-20T03:07:10.441Z,0
2018-09-20T03:08:10.352Z,0
2018-09-20T03:09:10.435Z,0
2018-09-20T03:10:10.364Z,0
2018-09-20T03:11:10.368Z,0
2018-09-20T03:12:10.354Z,0
2018-09-20T03:13:10.444Z,0
2018-09-20T03:14:10.439Z,0
2018-09-20T03:15:10.444Z,0
2018-09-20T03:16:10.405Z,0
2018-09-20T03:17:10.443Z,0
2018-09-20T03:18:10.370Z,0
2018-09-20T03:19:10.380Z,0
2018-09-20T03:20:10.383Z,0
2018-09-20T03:21:10.511Z,0
2018-09-20T03:22:10.416Z,0
2018-09-20T03:23:10.481Z,0
2018-09-20T03:24:10.429Z,0
2018-09-20T03:25:10.459Z,0
2018-09-20T03:26:10.480Z,0
2018-09-20T03:27:10.456Z,0
2018-09-20T03:28:10.377Z,0
2018-09-20T03:29:10.495Z,0
2018-09-20T03:30:10.446Z,0
2018-09-20T03:31:10.466Z,0
2018-09-20T03:32:10.410Z,0
2018-09-20T03:33:10.477Z,0
2018-09-20T03:34:10.413Z,0
2018-09-20T03:35:10.469Z,0
2018-09-20T03:36:10.475Z,0
2018-09-20T03:37:10.472Z,0
2018-09-20T03:38:10.409Z,0
2018-09-20T03:39:10.402Z,0
2018-09-20T03:40:10.402Z,0
2018-09-20T03:41:10.415Z,0
2018-09-20T03:42:10.475Z,0
2018-09-20T03:43:10.480Z,0
2018-09-20T03:44:10.405Z,0
2018-09-20T03:45:10.473Z,0
2018-09-20T03:46:10.371Z,0
2018-09-20T03:47:10.410Z,0
2018-09-20T03:48:10.417Z,0
2018-09-20T03:49:10.478Z,0
2018-09-20T03:50:10.414Z,0
2018-09-20T03:51:10.409Z,0
2018-09-20T03:52:10.481Z,0
2018-09-20T03:53:10.412Z,0
2018-09-20T03:54:10.412Z,0
2018-09-20T03:55:10.482Z,0
2018-09-20T03:56:10.418Z,0
2018-09-20T03:57:10.412Z,0
2018-09-20T03:58:10.415Z,0
2018-09-20T03:59:10.484Z,0
2018-09-20T04:00:10.489Z,0
2018-09-20T04:01:10.487Z,0
2018-09-20T04:02:10.487Z,0
2018-09-20T04:03:10.481Z,0
2018-09-20T04:04:10.421Z,0
2018-09-20T04:05:10.491Z,0
2018-09-20T04:06:10.422Z,0
2018-09-20T04:07:10.492Z,0
2018-09-20T04:08:10.423Z,0
2018-09-20T04:09:10.427Z,0
2018-09-20T04:10:10.423Z,0
2018-09-20T04:11:10.444Z,0
2018-09-20T04:12:10.443Z,0
2018-09-20T04:13:10.352Z,0
2018-09-20T04:14:10.411Z,0
2018-09-20T04:15:10.441Z,0
2018-09-20T04:16:10.350Z,0
2018-09-20T04:17:10.411Z,0
2018-09-20T04:18:10.412Z,0
2018-09-20T04:19:10.455Z,0
2018-09-20T04:20:10.400Z,0
2018-09-20T04:21:10.431Z,0
2018-09-20T04:22:10.500Z,0
2018-09-20T04:23:10.502Z,0
2018-09-20T04:24:10.441Z,0
2018-09-20T04:25:10.508Z,0
2018-09-20T04:26:10.507Z,0
2018-09-20T04:27:10.510Z,0
2018-09-20T04:28:10.502Z,0
2018-09-20T04:29:10.508Z,0
2018-09-20T04:30:10.445Z,0
2018-09-20T04:31:10.548Z,0
2018-09-20T04:32:10.470Z,0
2018-09-20T04:33:10.426Z,0
2018-09-20T04:34:10.428Z,0
2018-09-20T04:35:10.567Z,0
2018-09-20T04:36:10.433Z,0
2018-09-20T04:37:10.638Z,0
2018-09-20T04:38:10.428Z,0
2018-09-20T04:39:10.415Z,0
2018-09-20T04:40:10.517Z,0
2018-09-20T04:41:10.485Z,0
2018-09-20T04:42:10.532Z,0
2018-09-20T04:43:10.447Z,0
2018-09-20T04:44:10.518Z,0
2018-09-20T04:45:10.515Z,0
2018-09-20T04:46:10.521Z,0
2018-09-20T04:47:10.450Z,0
2018-09-20T04:48:10.447Z,0
2018-09-20T04:49:10.454Z,0
2018-09-20T04:50:10.451Z,0
2018-09-20T04:51:10.532Z,5
2018-09-20T04:52:10.493Z,5
2018-09-20T04:53:10.538Z,5
2018-09-20T04:54:10.431Z,5
2018-09-20T04:55:10.496Z,5
2018-09-20T04:56:10.488Z,11
2018-09-20T04:57:10.438Z,11
2018-09-20T04:58:10.430Z,11
2018-09-20T04:59:10.491Z,11
2018-09-20T05:00:10.535Z,16
2018-09-20T05:01:10.522Z,16
2018-09-20T05:02:10.497Z,16
2018-09-20T05:03:10.461Z,16
2018-09-20T05:04:10.528Z,22
2018-09-20T05:05:10.531Z,22
2018-09-20T05:06:10.529Z,22
2018-09-20T05:07:10.470Z,28
2018-09-20T05:08:10.592Z,28
2018-09-20T05:09:10.537Z,33
2018-09-20T05:10:10.544Z,33
2018-09-20T05:11:10.536Z,39
2018-09-20T05:12:10.559Z,39
2018-09-20T05:13:10.504Z,45
2018-09-20T05:14:10.558Z,50
2018-09-20T05:15:10.479Z,50
2018-09-20T05:16:10.500Z,56
2018-09-20T05:17:10.560Z,61
2018-09-20T05:18:10.571Z,67
2018-09-20T05:19:10.564Z,73
2018-09-20T05:20:10.593Z,73
2018-09-20T05:21:10.545Z,78
2018-09-20T05:22:10.431Z,84
2018-09-20T05:23:10.445Z,90
2018-09-20T05:24:10.530Z,95
2018-09-20T05:25:10.459Z,101
2018-09-20T05:26:10.535Z,106
2018-09-20T05:27:10.435Z,112
2018-09-20T05:28:10.475Z,118
2018-09-20T05:29:10.451Z,123
2018-09-20T05:30:10.471Z,123
2018-09-20T05:31:10.537Z,129
2018-09-20T05:32:10.524Z,135
2018-09-20T05:33:10.652Z,135
2018-09-20T05:34:10.468Z,140
2018-09-20T05:35:10.530Z,146
2018-09-20T05:36:10.550Z,146
2018-09-20T05:37:10.581Z,151
2018-09-20T05:38:10.469Z,157
2018-09-20T05:39:10.568Z,157
2018-09-20T05:40:10.505Z,163
2018-09-20T05:41:10.454Z,163
2018-09-20T05:42:10.613Z,168
2018-09-20T05:43:10.479Z,168
2018-09-20T05:44:10.556Z,174
2018-09-20T05:45:10.527Z,174
2018-09-20T05:46:10.599Z,180
2018-09-20T05:47:10.595Z,185
2018-09-20T05:48:10.532Z,185
2018-09-20T05:49:10.589Z,191
2018-09-20T05:50:10.533Z,196
2018-09-20T05:51:10.562Z,202
2018-09-20T05:52:10.496Z,208
2018-09-20T05:53:10.492Z,213
2018-09-20T05:54:10.588Z,219
2018-09-20T05:55:10.500Z,230
2018-09-20T05:56:10.570Z,241
2018-09-20T05:57:10.449Z,247
2018-09-20T05:58:10.500Z,264
2018-09-20T05:59:10.547Z,281
2018-09-20T06:00:10.501Z,292
2018-09-20T06:01:10.573Z,303
2018-09-20T06:02:10.475Z,315
2018-09-20T06:03:10.563Z,326
2018-09-20T06:04:10.491Z,348
2018-09-20T06:05:10.557Z,376
2018-09-20T06:06:10.563Z,399
2018-09-20T06:07:10.491Z,427
2018-09-20T06:08:10.566Z,450
2018-09-20T06:09:10.490Z,495
2018-09-20T06:11:10.517Z,540
2018-09-20T06:12:10.503Z,551
2018-09-20T06:13:10.526Z,568
2018-09-20T06:14:10.633Z,585
2018-09-20T06:15:10.500Z,590
2018-09-20T06:16:10.480Z,585
2018-09-20T06:17:10.610Z,590
2018-09-20T06:18:10.584Z,596
2018-09-20T06:19:10.539Z,596
2018-09-20T06:20:10.483Z,590
2018-09-20T06:21:10.542Z,601
2018-09-20T06:22:10.586Z,624
2018-09-20T06:23:10.515Z,708
2018-09-20T06:24:10.531Z,810
2018-09-20T06:25:10.556Z,686
2018-09-20T06:26:10.588Z,781
2018-09-20T06:27:10.527Z,714
2018-09-20T06:28:10.588Z,646
2018-09-20T06:29:10.596Z,601
2018-09-20T06:30:10.599Z,590
2018-09-20T06:31:10.487Z,613
2018-09-20T06:32:10.597Z,663
2018-09-20T06:33:10.521Z,680
2018-09-20T06:34:10.598Z,691
2018-09-20T06:35:10.595Z,697
2018-09-20T06:36:10.526Z,731
2018-09-20T06:37:10.527Z,753
2018-09-20T06:38:10.600Z,776
2018-09-20T06:39:10.600Z,787
2018-09-20T06:40:10.530Z,793
2018-09-20T06:41:10.614Z,832
2018-09-20T06:42:10.646Z,849
2018-09-20T06:43:10.564Z,877
2018-09-20T06:44:10.569Z,933
2018-09-20T06:45:10.611Z,961
2018-09-20T06:46:10.575Z,928
2018-09-20T06:47:10.524Z,928
2018-09-20T06:48:10.565Z,945
2018-09-20T06:49:10.583Z,978
2018-09-20T06:50:10.577Z,973
2018-09-20T06:51:10.581Z,911
2018-09-20T06:52:10.633Z,1046
2018-09-20T06:53:10.624Z,1265
2018-09-20T06:54:10.641Z,1372
2018-09-20T06:55:10.605Z,1468
2018-09-20T06:56:10.637Z,1496
2018-09-20T06:57:10.637Z,1490
2018-09-20T06:58:10.530Z,1490
2018-09-20T06:59:10.552Z,1147
2018-09-20T07:00:10.545Z,1372
2018-09-20T07:01:10.745Z,1248
2018-09-20T07:02:10.545Z,1575
2018-09-20T07:03:10.621Z,1546
2018-09-20T07:04:10.619Z,1608
2018-09-20T07:05:10.627Z,1676
2018-09-20T07:06:10.551Z,1687
2018-09-20T07:07:10.620Z,1636
2018-09-20T07:08:10.630Z,1479
2018-09-20T07:09:10.621Z,1389
2018-09-20T07:10:10.622Z,1395
2018-09-20T07:11:10.639Z,1282
2018-09-20T07:12:10.521Z,1243
2018-09-20T07:13:10.494Z,1254
2018-09-20T07:14:10.550Z,1355
2018-09-20T07:15:10.556Z,1333
2018-09-20T07:16:10.493Z,1310
2018-09-20T07:17:10.608Z,1350
2018-09-20T07:18:10.607Z,1282
2018-09-20T07:19:10.556Z,1321
2018-09-20T07:20:10.529Z,1440
2018-09-20T07:21:10.543Z,1366
2018-09-20T07:22:10.617Z,1237
2018-09-20T07:23:10.559Z,1288
2018-09-20T07:24:10.570Z,1417
2018-09-20T07:25:10.570Z,1513
2018-09-20T07:26:10.582Z,1507
2018-09-20T07:27:10.526Z,1603
2018-09-20T07:28:10.482Z,1524
2018-09-20T07:29:10.568Z,1338
2018-09-20T07:30:10.497Z,1395
2018-09-20T07:31:10.536Z,1400
2018-09-20T07:32:10.537Z,1192
2018-09-20T07:33:10.523Z,1288
2018-09-20T07:34:10.563Z,1147
2018-09-20T07:35:10.625Z,1141
2018-09-20T07:36:10.571Z,1428
2018-09-20T07:37:10.630Z,1485
2018-09-20T07:38:10.628Z,1479
2018-09-20T07:39:10.630Z,1620
2018-09-20T07:40:10.553Z,1597
2018-09-20T07:41:10.523Z,1698
2018-09-20T07:42:10.619Z,1473
2018-09-20T07:43:10.599Z,1366
2018-09-20T07:44:10.563Z,1305
2018-09-20T07:45:10.622Z,1473
2018-09-20T07:46:10.651Z,1614
2018-09-20T07:47:10.653Z,1091
2018-09-20T07:48:10.584Z,1243
2018-09-20T07:49:10.615Z,1755
2018-09-20T07:50:10.674Z,1591
2018-09-20T07:51:10.653Z,1648
2018-09-20T07:52:10.582Z,1158
2018-09-20T07:53:10.582Z,1417
2018-09-20T07:54:10.659Z,1164
2018-09-20T07:55:10.659Z,1001
2018-09-20T07:56:10.656Z,1310
2018-09-20T07:57:10.582Z,1260
2018-09-20T07:58:10.655Z,1395
2018-09-20T07:59:10.586Z,1693
2018-09-20T08:00:10.711Z,2081
2018-09-20T08:01:10.590Z,2030
2018-09-20T08:02:10.590Z,2036
2018-09-20T08:03:10.592Z,1996
2018-09-20T08:04:10.595Z,1991
2018-09-20T08:05:10.660Z,2041
2018-09-20T08:06:10.661Z,2070
2018-09-20T08:07:10.680Z,2115
2018-09-20T08:08:10.609Z,2137
2018-09-20T08:09:10.590Z,1743
2018-09-20T08:10:10.665Z,1518
2018-09-20T08:11:10.592Z,1541
2018-09-20T08:12:10.560Z,1794
2018-09-20T08:13:10.686Z,1541
2018-09-20T08:14:10.694Z,1850
2018-09-20T08:15:10.664Z,2047
2018-09-20T08:16:10.643Z,2227
2018-09-20T08:17:10.693Z,2283
2018-09-20T08:18:10.663Z,2250
2018-09-20T08:19:10.619Z,2362
2018-09-20T08:20:10.610Z,2390
2018-09-20T08:21:10.670Z,2475
2018-09-20T08:22:10.658Z,2497
2018-09-20T08:23:10.662Z,2497
2018-09-20T08:24:10.662Z,2452
2018-09-20T08:25:10.655Z,2840
2018-09-20T08:26:10.664Z,2925
2018-09-20T08:27:10.665Z,2930
2018-09-20T08:28:10.561Z,2885
2018-09-20T08:29:10.591Z,2975
2018-09-20T08:30:10.597Z,2953
2018-09-20T08:31:10.673Z,2986
2018-09-20T08:32:10.630Z,3015
2018-09-20T08:33:10.646Z,2992
2018-09-20T08:34:10.656Z,2958
2018-09-20T08:35:10.652Z,2306
2018-09-20T08:36:10.628Z,2036
2018-09-20T08:37:10.767Z,1951
2018-09-20T08:38:10.660Z,2109
2018-09-20T08:39:10.621Z,2520
2018-09-20T08:40:10.694Z,2750
2018-09-20T08:41:10.715Z,2790
2018-09-20T08:42:10.645Z,2812
2018-09-20T08:43:10.603Z,2840
2018-09-20T08:44:10.589Z,2840
2018-09-20T08:45:10.678Z,2857
2018-09-20T08:46:10.617Z,2829
2018-09-20T08:47:10.674Z,2812
2018-09-20T08:48:10.685Z,2851
2018-09-20T08:49:10.603Z,2851
2018-09-20T08:50:10.595Z,2801
2018-09-20T08:51:10.628Z,2795
2018-09-20T08:52:10.643Z,2801
2018-09-20T08:53:10.665Z,2829
2018-09-20T08:54:10.610Z,2880
2018-09-20T08:55:10.653Z,2925
2018-09-20T08:56:10.729Z,2975
2018-09-20T08:57:10.714Z,3026
2018-09-20T08:58:10.652Z,3076
2018-09-20T08:59:10.710Z,3138
2018-09-20T09:00:10.716Z,3105
2018-09-20T09:01:10.730Z,3037
2018-09-20T09:02:10.680Z,3026
2018-09-20T09:03:10.614Z,3037
2018-09-20T09:04:10.684Z,3088
2018-09-20T09:05:10.620Z,3071
2018-09-20T09:06:10.634Z,3076
2018-09-20T09:07:10.662Z,3054
2018-09-20T09:08:10.653Z,3088
2018-09-20T09:09:10.638Z,3003
2018-09-20T09:10:10.687Z,3065
2018-09-20T09:11:10.621Z,3110
2018-09-20T09:12:10.713Z,3172
2018-09-20T09:13:10.637Z,3211
2018-09-20T09:14:10.635Z,3206
2018-09-20T09:15:10.714Z,3195
2018-09-20T09:16:10.639Z,3211
2018-09-20T09:17:10.711Z,3240
2018-09-20T09:18:10.639Z,3217
2018-09-20T09:19:10.718Z,3161
2018-09-20T09:20:10.729Z,1620
2018-09-20T09:21:10.648Z,3240
2018-09-20T09:22:10.639Z,3178
2018-09-20T09:23:10.648Z,3217
2018-09-20T09:24:10.754Z,3189
2018-09-20T09:25:10.751Z,3189
2018-09-20T09:26:10.617Z,3245
2018-09-20T09:27:10.750Z,3200
2018-09-20T09:28:10.632Z,3296
2018-09-20T09:29:10.681Z,3273
2018-09-20T09:30:10.754Z,3279
2018-09-20T09:31:10.743Z,3335
2018-09-20T09:32:10.757Z,3335
2018-09-20T09:33:10.692Z,3301
2018-09-20T09:34:10.764Z,3228
2018-09-20T09:35:10.687Z,3279
2018-09-20T09:36:10.687Z,3341
2018-09-20T09:37:10.687Z,3375
2018-09-20T09:38:10.758Z,3380
2018-09-20T09:39:10.749Z,3436
2018-09-20T09:40:10.743Z,3453
2018-09-20T09:41:10.698Z,3465
2018-09-20T09:42:10.784Z,3408
2018-09-20T09:43:10.801Z,3510
2018-09-20T09:44:10.723Z,3594
2018-09-20T09:45:10.654Z,3577
2018-09-20T09:46:10.721Z,3594
2018-09-20T09:47:10.633Z,3645
2018-09-20T09:48:10.702Z,3639
2018-09-20T09:49:10.621Z,3538
2018-09-20T09:50:10.649Z,3532
2018-09-20T09:51:10.722Z,3538
2018-09-20T09:52:10.773Z,3577
2018-09-20T09:53:10.738Z,3566
2018-09-20T09:54:10.634Z,3583
2018-09-20T09:55:10.658Z,3583
2018-09-20T09:56:10.658Z,3583
2018-09-20T09:57:10.761Z,3560
2018-09-20T09:58:10.771Z,3605
2018-09-20T09:59:10.755Z,3510
2018-09-20T10:00:10.773Z,3639
2018-09-20T10:01:10.737Z,3594
2018-09-20T10:02:10.659Z,3600
2018-09-20T10:03:10.745Z,3594
2018-09-20T10:04:10.816Z,3566
2018-09-20T10:05:10.713Z,3543
2018-09-20T10:06:10.697Z,3526
2018-09-20T10:07:10.753Z,3510
2018-09-20T10:08:10.701Z,3543
2018-09-20T10:09:10.704Z,3588
2018-09-20T10:10:10.754Z,3583
2018-09-20T10:11:10.753Z,3667
2018-09-20T10:12:10.744Z,3751
2018-09-20T10:13:10.708Z,3763
2018-09-20T10:14:10.686Z,3757
2018-09-20T10:15:10.711Z,3751
2018-09-20T10:16:10.753Z,3813
2018-09-20T10:17:10.665Z,3746
2018-09-20T10:18:10.723Z,3650
2018-09-20T10:19:10.669Z,3549
2018-09-20T10:20:10.672Z,3493
2018-09-20T10:21:10.652Z,3470
2018-09-20T10:22:10.670Z,3493
2018-09-20T10:23:10.651Z,3481
2018-09-20T10:24:10.750Z,3391
2018-09-20T10:25:10.747Z,3532
2018-09-20T10:26:10.679Z,3127
2018-09-20T10:27:10.686Z,3121
2018-09-20T10:28:10.712Z,3088
2018-09-20T10:29:10.752Z,2902
2018-09-20T10:30:10.752Z,3127
2018-09-20T10:31:10.758Z,2227
2018-09-20T10:32:10.682Z,3403
2018-09-20T10:33:10.647Z,3459
2018-09-20T10:34:10.685Z,2902
2018-09-20T10:35:10.761Z,2896
2018-09-20T10:36:10.726Z,1738
2018-09-20T10:37:10.693Z,1383
2018-09-20T10:38:10.758Z,1496
2018-09-20T10:39:10.733Z,1963
2018-09-20T10:40:10.690Z,3150
2018-09-20T10:41:10.762Z,3178
2018-09-20T10:42:10.691Z,3566
2018-09-20T10:43:10.712Z,3538
2018-09-20T10:44:10.729Z,3296
2018-09-20T10:45:10.769Z,3526
2018-09-20T10:46:10.736Z,3459
2018-09-20T10:47:10.750Z,3476
2018-09-20T10:48:10.689Z,3459
2018-09-20T10:49:10.803Z,3493
2018-09-20T10:50:10.816Z,3504
2018-09-20T10:51:10.701Z,3504
2018-09-20T10:52:10.733Z,3605
2018-09-20T10:53:10.709Z,3611
2018-09-20T10:54:10.736Z,3150
2018-09-20T10:55:10.731Z,1693
2018-09-20T10:56:10.780Z,3465
2018-09-20T10:57:10.722Z,3526
2018-09-20T10:58:10.716Z,3498
2018-09-20T10:59:10.787Z,2390
2018-09-20T11:00:10.785Z,3386
2018-09-20T11:01:10.782Z,3414
2018-09-20T11:02:10.786Z,3414
2018-09-20T11:03:10.831Z,3493
2018-09-20T11:04:10.653Z,3521
2018-09-20T11:05:10.716Z,3476
2018-09-20T11:06:10.709Z,3391
2018-09-20T11:07:10.661Z,3363
2018-09-20T11:08:10.718Z,3504
2018-09-20T11:09:10.718Z,3605
2018-09-20T11:10:10.678Z,3571
2018-09-20T11:11:10.658Z,3538
2018-09-20T11:12:10.792Z,3307
2018-09-20T11:13:10.783Z,1378
2018-09-20T11:14:10.723Z,3605
2018-09-20T11:15:10.807Z,3560
2018-09-20T11:16:10.794Z,3706
2018-09-20T11:17:10.807Z,3414
2018-09-20T11:18:10.730Z,3420
2018-09-20T11:19:10.678Z,3026
2018-09-20T11:20:10.805Z,1350
2018-09-20T11:21:10.732Z,3290
2018-09-20T11:22:10.800Z,3498
2018-09-20T11:23:10.729Z,3521
2018-09-20T11:24:10.804Z,3324
2018-09-20T11:25:10.802Z,3442
2018-09-20T11:26:10.803Z,3532
2018-09-20T11:27:10.809Z,3476
2018-09-20T11:28:10.737Z,3583
2018-09-20T11:29:10.804Z,3532
2018-09-20T11:30:10.761Z,3678
2018-09-20T11:31:10.804Z,3729
2018-09-20T11:32:10.818Z,3723
2018-09-20T11:33:10.743Z,3453
2018-09-20T11:34:10.816Z,3645
2018-09-20T11:35:10.807Z,3673
2018-09-20T11:36:10.753Z,3577
2018-09-20T11:37:10.749Z,3555
2018-09-20T11:38:10.751Z,3391
2018-09-20T11:39:10.703Z,3459
2018-09-20T11:40:10.749Z,3065
2018-09-20T11:41:10.743Z,3481
2018-09-20T11:42:10.744Z,3611
2018-09-20T11:43:10.730Z,3549
2018-09-20T11:44:10.789Z,3459
2018-09-20T11:45:10.808Z,3645
2018-09-20T11:46:10.732Z,3532
2018-09-20T11:47:10.804Z,3375
2018-09-20T11:48:10.720Z,3369
2018-09-20T11:49:10.732Z,3228
2018-09-20T11:50:10.734Z,3088
2018-09-20T11:51:10.752Z,3729
2018-09-20T11:52:10.739Z,3785
2018-09-20T11:53:10.787Z,3661
2018-09-20T11:54:10.722Z,3639
2018-09-20T11:55:10.781Z,3459
2018-09-20T11:56:10.858Z,3200
2018-09-20T11:57:10.820Z,3043
2018-09-20T11:58:10.789Z,2902
2018-09-20T11:59:10.823Z,2694
2018-09-20T12:00:10.746Z,2598
2018-09-20T12:01:10.843Z,2846
2018-09-20T12:02:10.849Z,2941
2018-09-20T12:03:10.761Z,2953
2018-09-20T12:04:10.758Z,2958
2018-09-20T12:05:10.857Z,2958
2018-09-20T12:06:10.778Z,2896
2018-09-20T12:07:10.749Z,2891
2018-09-20T12:08:10.792Z,2896
2018-09-20T12:09:10.756Z,2846
2018-09-20T12:10:10.824Z,2812
2018-09-20T12:11:10.825Z,2683
2018-09-20T12:12:10.833Z,2773
2018-09-20T12:13:10.736Z,3043
2018-09-20T12:14:10.870Z,2975
2018-09-20T12:15:10.754Z,3076
2018-09-20T12:16:10.759Z,3060
2018-09-20T12:17:10.797Z,3116
2018-09-20T12:18:10.794Z,2756
2018-09-20T12:19:10.853Z,2643
2018-09-20T12:20:10.780Z,2812
2018-09-20T12:21:10.794Z,2829
2018-09-20T12:22:10.800Z,2773
2018-09-20T12:23:10.762Z,2840
2018-09-20T12:24:10.866Z,2604
2018-09-20T12:25:10.864Z,3150
2018-09-20T12:26:10.785Z,3121
2018-09-20T12:27:10.769Z,2880
2018-09-20T12:28:10.782Z,2525
2018-09-20T12:29:10.768Z,2435
2018-09-20T12:30:10.908Z,2570
2018-09-20T12:31:10.804Z,2525
2018-09-20T12:32:10.858Z,1530
2018-09-20T12:33:10.839Z,2694
2018-09-20T12:34:10.834Z,2632
2018-09-20T12:35:10.852Z,2874
2018-09-20T12:36:10.773Z,2863
2018-09-20T12:37:10.726Z,2925
2018-09-20T12:38:10.874Z,3138
2018-09-20T12:39:10.770Z,3206
2018-09-20T12:40:10.724Z,2908
2018-09-20T12:41:10.775Z,2638
2018-09-20T12:42:10.750Z,2992
2018-09-20T12:43:10.873Z,2840
2018-09-20T12:44:10.809Z,2925
2018-09-20T12:45:10.848Z,2801
2018-09-20T12:46:10.760Z,2345
2018-09-20T12:47:10.757Z,2103
2018-09-20T12:48:10.823Z,2491
2018-09-20T12:49:10.849Z,2790
2018-09-20T12:50:10.852Z,2688
2018-09-20T12:51:10.851Z,2812
2018-09-20T12:52:10.741Z,2812
2018-09-20T12:53:10.868Z,2559
2018-09-20T12:54:10.821Z,3459
2018-09-20T12:55:10.869Z,3459
2018-09-20T12:56:10.858Z,3363
2018-09-20T12:57:10.805Z,2711
2018-09-20T12:58:10.772Z,3397
2018-09-20T12:59:10.860Z,3481
2018-09-20T13:00:10.891Z,3571
2018-09-20T13:01:10.820Z,3026
2018-09-20T13:02:10.894Z,2143
2018-09-20T13:03:10.769Z,2289
2018-09-20T13:04:10.831Z,1980
2018-09-20T13:05:10.899Z,2075
2018-09-20T13:06:10.910Z,2103
2018-09-20T13:07:10.903Z,2463
2018-09-20T13:08:10.868Z,2812
2018-09-20T13:09:10.870Z,2835
2018-09-20T13:10:10.892Z,2666
2018-09-20T13:11:10.826Z,1805
2018-09-20T13:12:10.794Z,1743
2018-09-20T13:13:10.875Z,1963
2018-09-20T13:14:10.814Z,1861
2018-09-20T13:15:10.840Z,1816
2018-09-20T13:16:10.836Z,1721
2018-09-20T13:17:10.878Z,1591
2018-09-20T13:18:10.873Z,1507
2018-09-20T13:19:10.906Z,1490
2018-09-20T13:20:10.784Z,1479
2018-09-20T13:21:10.820Z,1479
2018-09-20T13:22:10.821Z,1468
2018-09-20T13:23:10.801Z,1490
2018-09-20T13:24:10.876Z,1569
2018-09-20T13:25:10.889Z,1766
2018-09-20T13:26:10.875Z,1558
2018-09-20T13:27:10.803Z,1586
2018-09-20T13:28:10.808Z,1541
2018-09-20T13:29:10.776Z,1490
2018-09-20T13:30:10.809Z,1445
2018-09-20T13:31:10.882Z,1445
2018-09-20T13:32:10.881Z,1445
2018-09-20T13:33:10.882Z,1440
2018-09-20T13:34:10.813Z,1417
2018-09-20T13:35:10.885Z,1389
2018-09-20T13:36:10.954Z,1366
2018-09-20T13:37:10.843Z,1378
2018-09-20T13:38:10.817Z,1366
2018-09-20T13:39:10.888Z,1383
2018-09-20T13:40:10.888Z,1333
2018-09-20T13:41:10.818Z,1305
2018-09-20T13:42:10.814Z,1299
2018-09-20T13:43:10.842Z,1305
2018-09-20T13:44:10.894Z,1327
2018-09-20T13:45:10.824Z,1366
2018-09-20T13:46:10.893Z,1822
2018-09-20T13:47:10.856Z,1631
2018-09-20T13:48:10.861Z,1580
2018-09-20T13:49:10.900Z,1417
2018-09-20T13:50:10.918Z,1546
2018-09-20T13:51:10.956Z,1451
2018-09-20T13:52:10.963Z,1389
2018-09-20T13:53:10.939Z,1473